Cold Ash, United Kingdom
Current Conditions -  °F | °C
As of 2:50 PM on Tuesday 21 Oct 2014 (Local Time) from EGUB Reporting Station
Rain Showers Rain Showers  
Wind Chill: 54°   Ceiling: Unl
Heat Index: 54°   Visibility: 6mi
Dew Point: 37°   Wind: 21mph
Humidity: 54%   Direction: 260°W
Pressure: 29.8"   Gusts: 33mph
Location:  51.42°N, 1.26°W
Report Text: EGUB 211350Z 26018G29KT 9999 VCSH FEW035CB SCT040 12/03 Q1009 BLU TEMPO 6000 SHRA SCT035CB WHT
Loading
Personal Weather Stations






























Interactive Weather Map
Tropical Storm Tracking
New forecast layout! Learn more

10-Day Weather Forecast

Advertisements
Track Severe Weather on mobile